Time;durP1;ratioP1;P1;durP2;ratioP2;P2;SDS_P1;SDS_P2;PMS_P1;PMS_P2;Temp;Humidity;BMP_temperature;BMP_pressure;BME280_temperature;BME280_humidity;BME280_pressure;Samples;Min_cycle;Max_cycle;Signal;HPM_P1;HPM_P2
2022/11/30 00:02:21;;;;;;;;;;;22.00;89.00;;;;;;5076752;28;19920;-54
2022/11/30 00:04:47;;;;;;;;;;;22.00;88.90;;;;;;5076927;28;19909;-52
2022/11/30 00:07:12;;;;;;;;;;;22.10;88.90;;;;;;5076869;28;19916;-54
2022/11/30 00:09:38;;;;;;;;;;;22.00;89.40;;;;;;5076829;28;19909;-53
2022/11/30 00:12:03;;;;;;;;;;;22.00;88.90;;;;;;5076800;28;19921;-50
2022/11/30 00:14:29;;;;;;;;;;;22.00;88.90;;;;;;5076384;28;20313;-53
2022/11/30 00:16:54;;;;;;;;;;;22.00;88.90;;;;;;5076744;28;19908;-52
2022/11/30 00:19:20;;;;;;;;;;;22.00;89.20;;;;;;5076640;28;20331;-51
2022/11/30 00:21:45;;;;;;;;;;;22.00;89.30;;;;;;5076342;28;19912;-50
2022/11/30 00:24:10;;;;;;;;;;;21.90;89.30;;;;;;5076339;28;19909;-52
2022/11/30 00:26:36;;;;;;;;;;;21.90;89.40;;;;;;5076213;28;19908;-55
2022/11/30 00:29:01;;;;;;;;;;;21.90;89.40;;;;;;5076252;28;20049;-53
2022/11/30 00:31:27;;;;;;;;;;;21.90;89.40;;;;;;5076007;28;19916;-52
2022/11/30 00:33:52;;;;;;;;;;;21.90;89.50;;;;;;5076168;28;20367;-52
2022/11/30 00:36:20;;;;;;;;;;;21.90;89.40;;;;;;5075994;28;19916;-53
2022/11/30 00:38:46;;;;;;;;;;;21.90;89.40;;;;;;5076201;28;19913;-51
2022/11/30 00:41:12;;;;;;;;;;;21.90;89.40;;;;;;5075954;28;19909;-50
2022/11/30 00:43:38;;;;;;;;;;;21.90;89.40;;;;;;5076137;28;19909;-55
2022/11/30 00:46:03;;;;;;;;;;;21.90;89.40;;;;;;5075848;28;19908;-53
2022/11/30 00:48:29;;;;;;;;;;;22.00;89.40;;;;;;5076082;28;19909;-51
2022/11/30 00:50:54;;;;;;;;;;;22.00;89.30;;;;;;5075882;28;20270;-52
2022/11/30 00:53:20;;;;;;;;;;;22.00;89.30;;;;;;5075973;28;19916;-52
2022/11/30 00:55:46;;;;;;;;;;;22.00;89.30;;;;;;5057946;28;19919;-52
2022/11/30 00:58:12;;;;;;;;;;;22.00;89.30;;;;;;5075856;28;20374;-53
2022/11/30 01:00:37;;;;;;;;;;;22.00;89.70;;;;;;5076195;28;19909;-53
2022/11/30 01:03:03;;;;;;;;;;;22.10;89.20;;;;;;5075859;28;19915;-53
2022/11/30 01:05:28;;;;;;;;;;;22.00;89.20;;;;;;5075778;28;19931;-51
2022/11/30 01:07:54;;;;;;;;;;;22.10;89.00;;;;;;5075470;28;19908;-50
2022/11/30 01:10:21;;;;;;;;;;;22.10;89.00;;;;;;5075359;28;19926;-51
2022/11/30 01:12:47;;;;;;;;;;;22.10;89.10;;;;;;5075521;28;19916;-53
2022/11/30 01:15:12;;;;;;;;;;;22.10;89.10;;;;;;5075914;28;20000;-50
2022/11/30 01:17:38;;;;;;;;;;;22.10;89.00;;;;;;5075625;28;19916;-54
2022/11/30 01:20:04;;;;;;;;;;;22.10;89.10;;;;;;5057505;28;20374;-51
2022/11/30 01:22:30;;;;;;;;;;;22.10;89.00;;;;;;5075408;28;20346;-53
2022/11/30 01:24:55;;;;;;;;;;;22.10;89.50;;;;;;5057529;28;19944;-49
2022/11/30 01:27:21;;;;;;;;;;;22.10;88.90;;;;;;5057355;28;19908;-51
2022/11/30 01:29:46;;;;;;;;;;;22.10;89.20;;;;;;5075334;28;20003;-53
2022/11/30 01:32:12;;;;;;;;;;;22.10;89.10;;;;;;5074927;28;19917;-52
2022/11/30 01:34:37;;;;;;;;;;;22.10;89.20;;;;;;5074965;28;19912;-54
2022/11/30 01:37:02;;;;;;;;;;;22.10;89.30;;;;;;5056862;28;19931;-52
2022/11/30 01:39:28;;;;;;;;;;;22.10;89.10;;;;;;5074902;28;19909;-52
2022/11/30 01:41:53;;;;;;;;;;;22.10;89.20;;;;;;5075098;28;19956;-52
2022/11/30 01:44:25;;;;;;;;;;;22.10;89.20;;;;;;5074814;28;19909;-51
2022/11/30 01:46:55;;;;;;;;;;;22.10;89.10;;;;;;5074994;28;19924;-51
2022/11/30 01:49:26;;;;;;;;;;;22.10;89.20;;;;;;5075176;28;19908;-49
2022/11/30 01:51:54;;;;;;;;;;;22.10;89.10;;;;;;5074650;28;19917;-53
2022/11/30 01:54:22;;;;;;;;;;;22.10;89.00;;;;;;5074570;28;20003;-51
2022/11/30 01:56:50;;;;;;;;;;;22.10;89.10;;;;;;5074508;28;19952;-54
2022/11/30 01:59:16;;;;;;;;;;;22.10;89.00;;;;;;5074763;28;19909;-52
2022/11/30 02:01:42;;;;;;;;;;;22.10;89.20;;;;;;5074439;28;20426;-52
2022/11/30 02:04:18;;;;;;;;;;;22.10;89.20;;;;;;5074667;28;19915;-50
2022/11/30 02:06:44;;;;;;;;;;;22.10;89.20;;;;;;5074623;28;20256;-49
2022/11/30 02:09:10;;;;;;;;;;;22.20;89.30;;;;;;5056696;28;20243;-52
2022/11/30 02:11:35;;;;;;;;;;;22.20;89.20;;;;;;5074638;28;19943;-53
2022/11/30 02:14:19;;;;;;;;;;;22.20;89.30;;;;;;5074236;28;19909;-53
2022/11/30 02:16:58;;;;;;;;;;;22.10;89.20;;;;;;5074541;28;19916;-51
2022/11/30 02:19:42;;;;;;;;;;;22.20;89.20;;;;;;5074418;28;19915;-52
2022/11/30 02:22:20;;;;;;;;;;;22.10;89.10;;;;;;5056284;28;19932;-52
2022/11/30 02:24:51;;;;;;;;;;;22.20;89.20;;;;;;5073827;28;20374;-57
2022/11/30 02:27:28;;;;;;;;;;;22.20;88.80;;;;;;5094312;28;19978;-53
2022/11/30 02:29:57;;;;;;;;;;;22.20;88.80;;;;;;5094936;28;20410;-53
2022/11/30 02:32:27;;;;;;;;;;;22.20;88.70;;;;;;5094142;28;19919;-51
2022/11/30 02:34:54;;;;;;;;;;;22.20;88.70;;;;;;5085060;28;20371;-51
2022/11/30 02:37:20;;;;;;;;;;;22.20;88.60;;;;;;5093037;28;19912;-55
2022/11/30 02:39:45;;;;;;;;;;;22.20;88.40;;;;;;5088549;28;19938;-52
2022/11/30 02:42:12;;;;;;;;;;;22.20;88.60;;;;;;5095334;28;19917;-53
2022/11/30 02:44:38;;;;;;;;;;;22.20;89.10;;;;;;5093960;28;19915;-52
2022/11/30 02:47:13;;;;;;;;;;;22.20;88.70;;;;;;5093931;28;19958;-52
2022/11/30 02:49:50;;;;;;;;;;;22.20;88.70;;;;;;5094012;28;20017;-53
2022/11/30 02:52:18;;;;;;;;;;;22.20;88.80;;;;;;5094272;28;19920;-53
2022/11/30 02:54:44;;;;;;;;;;;22.20;88.80;;;;;;5092223;28;19919;-51
2022/11/30 02:57:09;;;;;;;;;;;22.20;88.50;;;;;;5093881;28;19909;-53
2022/11/30 02:59:35;;;;;;;;;;;22.20;88.60;;;;;;5093930;28;20020;-50
2022/11/30 03:02:00;;;;;;;;;;;22.30;88.70;;;;;;5092562;28;20382;-55
2022/11/30 03:04:26;;;;;;;;;;;22.20;88.80;;;;;;5091741;28;19912;-52
2022/11/30 03:06:51;;;;;;;;;;;22.20;88.80;;;;;;5092374;28;19915;-53
2022/11/30 03:09:17;;;;;;;;;;;22.20;89.00;;;;;;5091887;28;19908;-55
2022/11/30 03:11:42;;;;;;;;;;;22.20;88.90;;;;;;5091546;28;19920;-52
2022/11/30 03:14:08;;;;;;;;;;;22.30;88.80;;;;;;5094100;28;19915;-50
2022/11/30 03:16:33;;;;;;;;;;;22.20;88.70;;;;;;5094066;28;19908;-54
2022/11/30 03:18:59;;;;;;;;;;;22.30;89.20;;;;;;5093995;28;19999;-53
2022/11/30 03:21:24;;;;;;;;;;;22.20;89.10;;;;;;5094010;28;19954;-49
2022/11/30 03:23:50;;;;;;;;;;;22.20;88.90;;;;;;5094006;28;20333;-54
2022/11/30 03:26:15;;;;;;;;;;;22.20;88.90;;;;;;5093975;28;19919;-54
2022/11/30 03:28:41;;;;;;;;;;;22.20;88.80;;;;;;5094000;28;19954;-55
2022/11/30 03:31:09;;;;;;;;;;;22.20;88.80;;;;;;5093865;28;19912;-52
2022/11/30 03:33:35;;;;;;;;;;;22.30;88.90;;;;;;5093926;28;19908;-53
2022/11/30 03:36:01;;;;;;;;;;;22.30;88.90;;;;;;5093961;28;20053;-51
2022/11/30 03:38:27;;;;;;;;;;;22.30;88.90;;;;;;5093620;28;20336;-54
2022/11/30 03:41:00;;;;;;;;;;;22.30;89.00;;;;;;5093838;28;19999;-52
2022/11/30 03:43:25;;;;;;;;;;;22.30;89.00;;;;;;5093477;28;19915;-53
2022/11/30 03:45:50;;;;;;;;;;;22.30;89.00;;;;;;5094100;28;19908;-50
2022/11/30 03:48:16;;;;;;;;;;;22.30;89.00;;;;;;5093459;28;20117;-53
2022/11/30 03:50:42;;;;;;;;;;;22.30;89.10;;;;;;5093775;28;20350;-52
2022/11/30 03:53:07;;;;;;;;;;;22.30;89.00;;;;;;5093404;28;19933;-53
2022/11/30 03:55:34;;;;;;;;;;;22.30;89.10;;;;;;5093367;28;19934;-49
2022/11/30 03:57:59;;;;;;;;;;;22.30;89.20;;;;;;5093733;28;19908;-52
2022/11/30 04:00:25;;;;;;;;;;;22.30;89.20;;;;;;5097335;28;19995;-51
2022/11/30 04:02:50;;;;;;;;;;;22.30;89.20;;;;;;5097089;28;19908;-55
2022/11/30 04:05:16;;;;;;;;;;;22.30;89.30;;;;;;5097281;28;19912;-51
2022/11/30 04:07:42;;;;;;;;;;;22.30;89.20;;;;;;5097256;28;19961;-51
2022/11/30 04:10:07;;;;;;;;;;;22.30;89.30;;;;;;5096955;28;19912;-52
2022/11/30 04:12:33;;;;;;;;;;;22.30;89.30;;;;;;5097063;28;19923;-54
2022/11/30 04:14:58;;;;;;;;;;;22.30;89.20;;;;;;5078926;28;19946;-55
2022/11/30 04:17:24;;;;;;;;;;;22.30;89.30;;;;;;5096985;28;20405;-55
2022/11/30 04:19:49;;;;;;;;;;;22.30;89.20;;;;;;5078840;28;19908;-52
2022/11/30 04:22:15;;;;;;;;;;;22.30;89.10;;;;;;5096955;28;19938;-51
2022/11/30 04:24:40;;;;;;;;;;;22.30;89.30;;;;;;5096570;28;19915;-54
2022/11/30 04:27:06;;;;;;;;;;;22.30;89.30;;;;;;5096837;28;19912;-54
2022/11/30 04:29:31;;;;;;;;;;;22.30;89.20;;;;;;5096782;28;19908;-55
2022/11/30 04:31:57;;;;;;;;;;;22.30;89.10;;;;;;5096226;28;19939;-54
2022/11/30 04:34:22;;;;;;;;;;;22.30;89.10;;;;;;5096143;28;19908;-54
2022/11/30 04:36:48;;;;;;;;;;;22.30;89.20;;;;;;5096238;28;20007;-50
2022/11/30 04:39:13;;;;;;;;;;;22.30;89.10;;;;;;5096547;28;19915;-53
2022/11/30 04:41:38;;;;;;;;;;;22.30;89.20;;;;;;5096917;28;19908;-52
2022/11/30 04:44:04;;;;;;;;;;;22.30;89.20;;;;;;5096530;28;19908;-53
2022/11/30 04:46:29;;;;;;;;;;;22.30;89.20;;;;;;5096462;28;19908;-54
2022/11/30 04:48:55;;;;;;;;;;;22.30;89.10;;;;;;5096395;28;19908;-50
2022/11/30 04:51:20;;;;;;;;;;;22.30;89.10;;;;;;5095939;28;19916;-54
2022/11/30 04:53:46;;;;;;;;;;;22.30;89.10;;;;;;5078165;28;20252;-50
2022/11/30 04:56:11;;;;;;;;;;;22.30;89.20;;;;;;5096233;28;19915;-53
2022/11/30 04:58:37;;;;;;;;;;;22.30;89.30;;;;;;5096217;28;19912;-53
2022/11/30 05:01:03;;;;;;;;;;;22.30;89.40;;;;;;5078017;28;19908;-56
2022/11/30 05:03:28;;;;;;;;;;;22.30;89.20;;;;;;5095858;28;19909;-54
2022/11/30 05:05:54;;;;;;;;;;;22.30;89.20;;;;;;5096147;28;19915;-54
2022/11/30 05:08:19;;;;;;;;;;;22.30;89.40;;;;;;5095917;28;19994;-53
2022/11/30 05:10:49;;;;;;;;;;;22.30;89.30;;;;;;5094610;28;19920;-50
2022/11/30 05:13:15;;;;;;;;;;;22.30;89.40;;;;;;5095743;28;19916;-52
2022/11/30 05:15:40;;;;;;;;;;;22.30;89.40;;;;;;5095450;28;19908;-54
2022/11/30 05:18:06;;;;;;;;;;;22.30;89.40;;;;;;5095812;28;19912;-53
2022/11/30 05:20:31;;;;;;;;;;;22.30;89.30;;;;;;5077730;28;19908;-51
2022/11/30 05:22:57;;;;;;;;;;;22.30;89.20;;;;;;5095735;28;20374;-49
2022/11/30 05:25:22;;;;;;;;;;;22.30;89.30;;;;;;5095610;28;19908;-54
2022/11/30 05:27:48;;;;;;;;;;;22.30;89.00;;;;;;5095202;28;19943;-51
2022/11/30 05:30:13;;;;;;;;;;;22.30;89.10;;;;;;5095481;28;19944;-50
2022/11/30 05:32:39;;;;;;;;;;;22.30;89.00;;;;;;5095126;28;19967;-53
2022/11/30 05:35:04;;;;;;;;;;;22.30;89.00;;;;;;5094877;28;20359;-54
2022/11/30 05:37:30;;;;;;;;;;;22.30;89.00;;;;;;5094966;28;19908;-53
2022/11/30 05:39:55;;;;;;;;;;;22.40;89.00;;;;;;5095307;28;19908;-53
2022/11/30 05:42:20;;;;;;;;;;;22.30;89.00;;;;;;5095212;28;20370;-52
2022/11/30 05:44:46;;;;;;;;;;;22.30;88.90;;;;;;5095131;28;20007;-53
2022/11/30 05:47:12;;;;;;;;;;;22.40;89.30;;;;;;5095197;28;19908;-53
2022/11/30 05:49:37;;;;;;;;;;;22.30;89.20;;;;;;5076718;28;19908;-53
2022/11/30 05:52:03;;;;;;;;;;;22.40;89.30;;;;;;5094707;28;19963;-54
2022/11/30 05:54:28;;;;;;;;;;;22.40;89.80;;;;;;5095338;28;19908;-54
2022/11/30 05:56:54;;;;;;;;;;;22.30;89.10;;;;;;5094946;28;19915;-50
2022/11/30 05:59:19;;;;;;;;;;;22.30;89.00;;;;;;5095258;28;19908;-50
2022/11/30 06:01:45;;;;;;;;;;;22.40;89.00;;;;;;5094808;28;19908;-54
2022/11/30 06:04:10;;;;;;;;;;;22.40;89.10;;;;;;5094212;28;19977;-54
2022/11/30 06:06:36;;;;;;;;;;;22.40;89.00;;;;;;5094864;28;20051;-53
2022/11/30 06:09:01;;;;;;;;;;;22.40;88.90;;;;;;5095017;28;20002;-51
2022/11/30 06:11:27;;;;;;;;;;;22.40;89.10;;;;;;5094490;28;20374;-51
2022/11/30 06:13:52;;;;;;;;;;;22.30;89.20;;;;;;5094597;28;19969;-53
2022/11/30 06:16:17;;;;;;;;;;;22.30;89.30;;;;;;5094662;28;19916;-52
2022/11/30 06:18:43;;;;;;;;;;;22.30;89.40;;;;;;5094649;28;20379;-53
2022/11/30 06:21:10;;;;;;;;;;;22.20;89.30;;;;;;5076127;28;19915;-50
2022/11/30 06:23:35;;;;;;;;;;;22.20;89.30;;;;;;5090959;28;19915;-55
2022/11/30 06:26:02;;;;;;;;;;;22.20;89.50;;;;;;5075527;28;20308;-52
2022/11/30 06:28:28;;;;;;;;;;;22.20;89.30;;;;;;5094038;28;20362;-52
2022/11/30 06:30:56;;;;;;;;;;;22.10;89.40;;;;;;5094231;28;19923;-54
2022/11/30 06:33:22;;;;;;;;;;;22.20;89.60;;;;;;5094213;28;19923;-54
2022/11/30 06:35:48;;;;;;;;;;;22.20;89.40;;;;;;5094013;28;19968;-52
2022/11/30 06:38:13;;;;;;;;;;;22.10;89.20;;;;;;5094096;28;19915;-54
2022/11/30 06:40:38;;;;;;;;;;;22.20;89.60;;;;;;5093672;28;20428;-53
2022/11/30 06:43:04;;;;;;;;;;;22.20;89.30;;;;;;5093730;28;19909;-54
2022/11/30 06:45:30;;;;;;;;;;;22.20;89.10;;;;;;5094389;28;20309;-55
2022/11/30 06:47:56;;;;;;;;;;;22.10;89.00;;;;;;5092181;28;20021;-53
2022/11/30 06:50:22;;;;;;;;;;;22.20;89.20;;;;;;5093675;28;19912;-53
2022/11/30 06:52:47;;;;;;;;;;;22.20;89.20;;;;;;5095444;28;20290;-54
2022/11/30 06:55:13;;;;;;;;;;;22.20;89.10;;;;;;5107413;28;19917;-52
2022/11/30 06:57:38;;;;;;;;;;;22.20;89.00;;;;;;5075129;28;19909;-51
2022/11/30 07:00:04;;;;;;;;;;;22.20;88.90;;;;;;5093581;28;19908;-53
2022/11/30 07:02:29;;;;;;;;;;;22.20;88.80;;;;;;5093578;28;20392;-59
2022/11/30 07:04:55;;;;;;;;;;;22.30;89.00;;;;;;5091520;28;19919;-52
2022/11/30 07:07:20;;;;;;;;;;;22.30;88.80;;;;;;5103368;28;20527;-53
2022/11/30 07:09:46;;;;;;;;;;;22.30;87.30;;;;;;5093045;28;19915;-55
2022/11/30 07:12:11;;;;;;;;;;;22.30;86.80;;;;;;5105308;28;19959;-56
2022/11/30 07:14:37;;;;;;;;;;;22.30;88.00;;;;;;5074802;28;20246;-51
2022/11/30 07:17:05;;;;;;;;;;;22.30;88.50;;;;;;5096099;28;19918;-56
2022/11/30 07:19:33;;;;;;;;;;;22.30;88.50;;;;;;5106428;28;19960;-55
2022/11/30 07:21:58;;;;;;;;;;;22.30;88.70;;;;;;5108532;28;19912;-53
2022/11/30 07:27:08;;;;;;;;;;;22.40;88.60;;;;;;5096090;28;19934;-50
2022/11/30 07:29:34;;;;;;;;;;;22.40;88.60;;;;;;5098433;28;19919;-52
2022/11/30 07:31:59;;;;;;;;;;;22.40;88.70;;;;;;5093673;28;19920;-49
2022/11/30 07:34:25;;;;;;;;;;;22.40;88.70;;;;;;5082711;28;19945;-51
2022/11/30 07:36:50;;;;;;;;;;;22.40;88.70;;;;;;5101399;28;20003;-49
2022/11/30 07:39:16;;;;;;;;;;;22.50;88.80;;;;;;5078229;28;19930;-48
2022/11/30 07:41:41;;;;;;;;;;;22.40;88.80;;;;;;5095001;28;20252;-49
2022/11/30 07:44:07;;;;;;;;;;;22.40;88.80;;;;;;5099481;28;20341;-48
2022/11/30 07:46:34;;;;;;;;;;;22.50;88.90;;;;;;5096901;28;20266;-47
2022/11/30 07:49:03;;;;;;;;;;;22.40;88.80;;;;;;5096078;28;19912;-48
2022/11/30 07:51:29;;;;;;;;;;;22.40;88.90;;;;;;5110404;28;19915;-50
2022/11/30 07:53:55;;;;;;;;;;;22.40;88.80;;;;;;5105974;28;20255;-53
2022/11/30 07:56:21;;;;;;;;;;;22.40;88.70;;;;;;5097315;28;20010;-49
2022/11/30 07:58:47;;;;;;;;;;;22.50;88.70;;;;;;5095044;28;20007;-48
2022/11/30 08:01:14;;;;;;;;;;;22.50;88.50;;;;;;5095497;28;19919;-47
2022/11/30 08:03:39;;;;;;;;;;;22.50;88.70;;;;;;5096947;28;19962;-50
2022/11/30 08:06:06;;;;;;;;;;;22.50;88.50;;;;;;5099879;28;19912;-49
2022/11/30 08:08:33;;;;;;;;;;;22.50;88.50;;;;;;5095603;28;19912;-47
2022/11/30 08:10:59;;;;;;;;;;;22.60;88.50;;;;;;5076775;28;19928;-47
2022/11/30 08:13:24;;;;;;;;;;;22.60;88.50;;;;;;5111763;28;20010;-49
2022/11/30 08:15:50;;;;;;;;;;;22.60;88.50;;;;;;5090614;28;19954;-50
2022/11/30 08:18:15;;;;;;;;;;;22.60;88.40;;;;;;5115705;28;20307;-53
2022/11/30 08:20:41;;;;;;;;;;;22.60;88.50;;;;;;5096702;28;20385;-50
2022/11/30 08:23:06;;;;;;;;;;;22.60;88.50;;;;;;5102332;28;19939;-53
2022/11/30 08:25:33;;;;;;;;;;;22.60;88.60;;;;;;5117140;28;19912;-50
2022/11/30 08:27:58;;;;;;;;;;;22.50;88.60;;;;;;5091151;28;19918;-53
2022/11/30 08:30:24;;;;;;;;;;;22.50;88.90;;;;;;5100623;28;19916;-46
2022/11/30 08:32:50;;;;;;;;;;;22.50;89.00;;;;;;5095871;28;19943;-47
2022/11/30 08:35:16;;;;;;;;;;;22.50;89.00;;;;;;5105575;28;19912;-46
2022/11/30 08:37:41;;;;;;;;;;;22.50;89.10;;;;;;5094240;28;19912;-50
2022/11/30 08:40:07;;;;;;;;;;;22.50;89.10;;;;;;5098904;28;19965;-47
2022/11/30 08:42:32;;;;;;;;;;;22.50;89.10;;;;;;5093098;28;19918;-48
2022/11/30 08:44:58;;;;;;;;;;;22.60;89.10;;;;;;5102659;28;19912;-51
2022/11/30 08:47:23;;;;;;;;;;;22.60;89.00;;;;;;5098249;28;20262;-47
2022/11/30 08:49:49;;;;;;;;;;;22.60;89.00;;;;;;5107622;28;19951;-47
2022/11/30 08:52:14;;;;;;;;;;;22.60;88.90;;;;;;5096001;28;19920;-50
2022/11/30 08:54:43;;;;;;;;;;;22.70;88.90;;;;;;5116902;28;19908;-49
2022/11/30 08:57:09;;;;;;;;;;;22.70;88.90;;;;;;5104045;28;20002;-47
2022/11/30 08:59:35;;;;;;;;;;;22.70;88.80;;;;;;5097361;28;19912;-49
2022/11/30 09:02:00;;;;;;;;;;;22.70;89.00;;;;;;5114238;28;20247;-47
2022/11/30 09:04:25;;;;;;;;;;;22.70;88.80;;;;;;5094112;28;19916;-50
2022/11/30 09:06:51;;;;;;;;;;;22.70;88.90;;;;;;5103724;28;20041;-52
2022/11/30 09:09:16;;;;;;;;;;;22.70;88.90;;;;;;5093559;28;19919;-55
2022/11/30 09:11:42;;;;;;;;;;;22.70;89.10;;;;;;5079841;28;20282;-47
2022/11/30 09:14:08;;;;;;;;;;;22.60;89.10;;;;;;5093152;28;19919;-50
2022/11/30 09:16:34;;;;;;;;;;;22.60;89.10;;;;;;5098711;28;20006;-47
2022/11/30 09:19:00;;;;;;;;;;;22.60;89.10;;;;;;5096703;28;19965;-48
2022/11/30 09:21:25;;;;;;;;;;;22.60;89.20;;;;;;5094757;28;19916;-47
2022/11/30 09:23:51;;;;;;;;;;;22.60;89.10;;;;;;5095611;28;19908;-48
2022/11/30 09:26:18;;;;;;;;;;;22.60;89.20;;;;;;5109161;28;19912;-52
2022/11/30 09:28:44;;;;;;;;;;;22.70;89.10;;;;;;5115453;28;19930;-47
2022/11/30 09:31:11;;;;;;;;;;;22.70;89.10;;;;;;5105072;28;20425;-51
2022/11/30 09:33:36;;;;;;;;;;;22.70;89.10;;;;;;5095324;28;19920;-48
2022/11/30 09:36:03;;;;;;;;;;;22.70;89.20;;;;;;5099678;28;19988;-49
2022/11/30 09:38:29;;;;;;;;;;;22.60;89.10;;;;;;5113439;28;19990;-47
2022/11/30 09:40:55;;;;;;;;;;;22.60;89.20;;;;;;5095181;28;19985;-50
2022/11/30 09:43:29;;;;;;;;;;;22.60;89.20;;;;;;5096090;28;20279;-48
2022/11/30 09:46:00;;;;;;;;;;;22.60;89.30;;;;;;5092514;28;19913;-49
2022/11/30 09:48:32;;;;;;;;;;;22.60;89.30;;;;;;5093828;28;19908;-50
2022/11/30 09:51:02;;;;;;;;;;;22.60;89.40;;;;;;5074955;28;19912;-49
2022/11/30 09:53:37;;;;;;;;;;;22.60;89.40;;;;;;5075625;28;19916;-48
2022/11/30 09:56:05;;;;;;;;;;;22.50;89.40;;;;;;5101556;28;19999;-47
2022/11/30 09:58:57;;;;;;;;;;;22.50;89.50;;;;;;5092491;28;19908;-52
2022/11/30 10:01:22;;;;;;;;;;;22.50;89.50;;;;;;5070977;28;19924;-51
2022/11/30 10:03:48;;;;;;;;;;;22.50;89.60;;;;;;5104536;28;20270;-48
2022/11/30 10:06:17;;;;;;;;;;;22.50;89.60;;;;;;5102562;28;19957;-48
2022/11/30 10:08:54;;;;;;;;;;;22.50;89.60;;;;;;5082263;28;19916;-49
2022/11/30 10:11:23;;;;;;;;;;;22.60;89.20;;;;;;5093695;28;19927;-50
2022/11/30 10:13:51;;;;;;;;;;;22.60;89.40;;;;;;5100034;28;20326;-53
2022/11/30 10:16:31;;;;;;;;;;;22.60;89.30;;;;;;5105555;28;19916;-49
2022/11/30 10:19:13;;;;;;;;;;;22.70;89.30;;;;;;5093023;28;20247;-49
2022/11/30 10:21:50;;;;;;;;;;;22.60;89.30;;;;;;5091887;28;20340;-49
2022/11/30 10:24:30;;;;;;;;;;;22.70;89.40;;;;;;5092953;28;19908;-51
2022/11/30 10:26:57;;;;;;;;;;;22.70;89.30;;;;;;5094080;28;19912;-49
2022/11/30 10:29:36;;;;;;;;;;;22.70;89.30;;;;;;5094504;28;19919;-48
2022/11/30 10:32:11;;;;;;;;;;;22.70;89.30;;;;;;5095303;28;19920;-49
2022/11/30 10:34:37;;;;;;;;;;;22.70;89.20;;;;;;5098147;28;19973;-47
2022/11/30 10:37:20;;;;;;;;;;;22.70;89.20;;;;;;5093378;28;19994;-51
2022/11/30 10:39:46;;;;;;;;;;;22.70;89.30;;;;;;5073930;28;20379;-51
2022/11/30 10:42:15;;;;;;;;;;;22.70;89.20;;;;;;5098337;28;19911;-49
2022/11/30 10:44:42;;;;;;;;;;;22.70;89.20;;;;;;5112410;28;19912;-51
2022/11/30 10:47:14;;;;;;;;;;;22.70;89.10;;;;;;5091623;28;20007;-51
2022/11/30 10:49:47;;;;;;;;;;;22.70;89.10;;;;;;5098964;28;19911;-48
2022/11/30 10:52:14;;;;;;;;;;;22.80;89.00;;;;;;5114320;28;19919;-47
2022/11/30 10:54:40;;;;;;;;;;;22.80;88.80;;;;;;5109030;28;19916;-53
2022/11/30 10:57:06;;;;;;;;;;;22.90;88.70;;;;;;5092945;28;19957;-50
2022/11/30 10:59:40;;;;;;;;;;;22.90;88.60;;;;;;5091252;28;19919;-48
2022/11/30 11:02:24;;;;;;;;;;;23.00;88.70;;;;;;5096916;28;19911;-49
2022/11/30 11:05:06;;;;;;;;;;;22.90;88.60;;;;;;5096017;28;20433;-52
2022/11/30 11:07:31;;;;;;;;;;;22.90;88.80;;;;;;5113122;28;19926;-52
2022/11/30 11:10:00;;;;;;;;;;;22.80;89.00;;;;;;5114804;28;19999;-47
2022/11/30 11:12:27;;;;;;;;;;;22.80;89.30;;;;;;5110564;28;19959;-49
2022/11/30 11:15:12;;;;;;;;;;;22.70;89.30;;;;;;5079697;28;19912;-50
2022/11/30 11:17:37;;;;;;;;;;;22.70;89.30;;;;;;5077529;28;19909;-49
2022/11/30 11:20:23;;;;;;;;;;;22.70;89.40;;;;;;5089456;28;20010;-50
2022/11/30 11:22:48;;;;;;;;;;;22.70;89.30;;;;;;5109077;28;19912;-50
2022/11/30 11:25:23;;;;;;;;;;;22.70;89.30;;;;;;5096102;28;20252;-49
2022/11/30 11:27:53;;;;;;;;;;;22.70;89.30;;;;;;5103752;28;19911;-47
2022/11/30 11:30:25;;;;;;;;;;;22.70;89.30;;;;;;5094861;28;19943;-47
2022/11/30 11:33:19;;;;;;;;;;;22.80;89.20;;;;;;5109002;28;19965;-48
2022/11/30 11:35:49;;;;;;;;;;;22.80;89.00;;;;;;5056625;28;20371;-47
2022/11/30 11:38:19;;;;;;;;;;;22.90;88.90;;;;;;5095797;28;19912;-49
2022/11/30 11:41:04;;;;;;;;;;;23.00;88.80;;;;;;5095055;28;19957;-47
2022/11/30 11:43:31;;;;;;;;;;;23.00;88.50;;;;;;5098778;28;19912;-51
2022/11/30 11:45:59;;;;;;;;;;;23.00;88.40;;;;;;5114955;28;19957;-48
2022/11/30 11:48:26;;;;;;;;;;;23.10;88.50;;;;;;5109276;28;19912;-48
2022/11/30 11:50:56;;;;;;;;;;;23.00;88.50;;;;;;5114452;28;19934;-48
2022/11/30 11:53:33;;;;;;;;;;;22.90;88.70;;;;;;5115605;28;20297;-50
2022/11/30 11:56:08;;;;;;;;;;;22.80;88.80;;;;;;5097972;28;19912;-50
2022/11/30 11:58:42;;;;;;;;;;;22.80;89.00;;;;;;5096075;28;20006;-50
2022/11/30 12:01:12;;;;;;;;;;;22.80;89.30;;;;;;5097571;28;19912;-49
2022/11/30 12:03:44;;;;;;;;;;;22.80;89.10;;;;;;5099953;28;19995;-53
2022/11/30 12:06:12;;;;;;;;;;;22.80;89.10;;;;;;5090579;28;19999;-49
2022/11/30 12:08:44;;;;;;;;;;;22.80;89.00;;;;;;5094305;28;19912;-50
2022/11/30 12:11:21;;;;;;;;;;;22.80;88.90;;;;;;5072133;28;19920;-46
2022/11/30 12:13:47;;;;;;;;;;;22.90;88.90;;;;;;5102576;28;19923;-47
2022/11/30 12:16:28;;;;;;;;;;;22.90;88.60;;;;;;5078523;28;19947;-47
2022/11/30 12:19:04;;;;;;;;;;;22.90;88.60;;;;;;5095997;28;19915;-46
2022/11/30 12:21:43;;;;;;;;;;;23.00;88.50;;;;;;5076405;28;19919;-46
2022/11/30 12:24:27;;;;;;;;;;;23.00;88.30;;;;;;5077271;28;20367;-47
2022/11/30 12:26:57;;;;;;;;;;;23.00;88.20;;;;;;5076318;28;19908;-46
2022/11/30 12:29:36;;;;;;;;;;;23.00;88.10;;;;;;5083945;28;19973;-47
2022/11/30 12:32:11;;;;;;;;;;;23.00;88.10;;;;;;5095992;28;19916;-49
2022/11/30 12:34:55;;;;;;;;;;;23.00;88.00;;;;;;5078003;28;20028;-48
2022/11/30 12:37:26;;;;;;;;;;;23.00;88.50;;;;;;5106316;28;19912;-48
2022/11/30 12:40:00;;;;;;;;;;;22.90;87.90;;;;;;5114741;28;19911;-47
2022/11/30 12:42:32;;;;;;;;;;;22.90;88.30;;;;;;5096014;28;19919;-50
2022/11/30 12:45:07;;;;;;;;;;;22.90;88.30;;;;;;5116760;28;19908;-49
2022/11/30 12:47:33;;;;;;;;;;;22.80;88.30;;;;;;5113563;28;19911;-47
2022/11/30 12:50:09;;;;;;;;;;;22.80;88.40;;;;;;5101327;28;19934;-52
2022/11/30 12:53:10;;;;;;;;;;;22.80;88.50;;;;;;5094200;28;19920;-52
2022/11/30 12:55:38;;;;;;;;;;;22.80;88.50;;;;;;5030744;28;19913;-54
2022/11/30 12:58:15;;;;;;;;;;;22.70;88.60;;;;;;5068405;28;20359;-48
2022/11/30 13:00:46;;;;;;;;;;;22.70;88.60;;;;;;5092457;28;19912;-49
2022/11/30 13:03:30;;;;;;;;;;;22.70;88.90;;;;;;5096836;28;20382;-49
2022/11/30 13:05:58;;;;;;;;;;;22.80;88.90;;;;;;5107015;28;19919;-48
2022/11/30 13:08:27;;;;;;;;;;;22.80;88.90;;;;;;5093838;28;19912;-48
2022/11/30 13:10:58;;;;;;;;;;;22.80;88.80;;;;;;5098028;28;20019;-49
2022/11/30 13:13:27;;;;;;;;;;;22.80;88.90;;;;;;5109693;28;19920;-49
2022/11/30 13:15:54;;;;;;;;;;;22.80;88.80;;;;;;5101354;28;19916;-51
2022/11/30 13:18:20;;;;;;;;;;;22.80;88.90;;;;;;5103921;28;20235;-46
2022/11/30 13:20:51;;;;;;;;;;;22.80;88.90;;;;;;5095024;28;20244;-49
2022/11/30 13:23:20;;;;;;;;;;;22.80;88.80;;;;;;5116033;28;19912;-48
2022/11/30 13:25:52;;;;;;;;;;;22.80;88.90;;;;;;5107294;28;19926;-51
2022/11/30 13:28:17;;;;;;;;;;;22.80;88.80;;;;;;5091983;28;19923;-51
2022/11/30 13:30:42;;;;;;;;;;;22.80;88.90;;;;;;5095641;28;19912;-52
2022/11/30 13:33:27;;;;;;;;;;;22.80;89.00;;;;;;5092197;28;19920;-52
2022/11/30 13:35:53;;;;;;;;;;;22.80;89.00;;;;;;5110565;28;19907;-50
2022/11/30 13:38:19;;;;;;;;;;;22.80;88.90;;;;;;5105597;28;19912;-50
2022/11/30 13:41:02;;;;;;;;;;;22.90;88.90;;;;;;5091485;28;19912;-49
2022/11/30 13:43:28;;;;;;;;;;;22.90;88.80;;;;;;5094142;28;19969;-51
2022/11/30 13:46:12;;;;;;;;;;;22.80;88.90;;;;;;5095009;28;19908;-46
2022/11/30 13:48:38;;;;;;;;;;;22.80;88.90;;;;;;5075280;28;19912;-50
2022/11/30 13:51:04;;;;;;;;;;;22.80;89.00;;;;;;5095080;28;19908;-53
2022/11/30 13:53:34;;;;;;;;;;;22.80;89.00;;;;;;5093869;28;19942;-51
2022/11/30 13:56:02;;;;;;;;;;;22.80;89.00;;;;;;5081661;28;20258;-47
2022/11/30 13:58:27;;;;;;;;;;;22.80;89.00;;;;;;5112770;28;20314;-48
2022/11/30 14:00:59;;;;;;;;;;;22.80;89.00;;;;;;5107874;28;19919;-49
2022/11/30 14:03:27;;;;;;;;;;;22.80;88.90;;;;;;5094109;28;19920;-48
2022/11/30 14:05:53;;;;;;;;;;;22.80;89.00;;;;;;5085011;28;19911;-47
2022/11/30 14:08:21;;;;;;;;;;;22.80;89.00;;;;;;5094765;28;19913;-52
2022/11/30 14:10:51;;;;;;;;;;;22.80;89.00;;;;;;5102129;28;20000;-46
2022/11/30 14:13:19;;;;;;;;;;;22.80;89.00;;;;;;5096114;28;19924;-48
2022/11/30 14:15:44;;;;;;;;;;;22.80;89.10;;;;;;5098098;28;19915;-50
2022/11/30 14:18:09;;;;;;;;;;;22.80;89.00;;;;;;5091116;28;19912;-52
2022/11/30 14:20:37;;;;;;;;;;;22.80;89.10;;;;;;5093926;28;19909;-54
2022/11/30 14:23:07;;;;;;;;;;;22.80;89.20;;;;;;5096252;28;19969;-51
2022/11/30 14:25:33;;;;;;;;;;;22.70;89.10;;;;;;5092300;28;19912;-47